首页
METAR-TAF:

METAR-TAF

机场 :

Andrews-Murphy Airport

Andrews, 北卡罗来纳州, 美国

纬度: 35-11-42N, 经度: 083-51-49W, 海拔: 517米

当前天气观测

该预报发布于56分钟前的11:55 UTC
静风
温度 0°C
湿度 100%
气压 1019 hPa
能見度: 11.3公里
天空无云

METAR: KRHP 171155Z AUTO 00000KT 7SM CLR 00/00 A3010 RMK AO2 T00000000 10010 21006

时间: 07:51 (12:51 UTC)


TAF: 丢失

超过4000个机场的气象观测和天气预报(METAR&TAF报告)。

可查询的气象台以黄色和红色小点在地图上表示。

将鼠标移到小点上方,可查看气象台名称。

然后点击查看天气观测和预报。

如需切换地图:点击带黑十字的绿色按钮放大地图;点击带横线的绿色按钮缩小地图;或者点击绿色箭头查看邻近地区的地图。


METAR-TAF: